^^
Saratoga-Weather Station Historical Data
Daily Summary for March 4, 2021 Units:  Metric    English   Both
Daily Weekly Monthly Yearly Custom
  High: Low: Average:
Temperature: 8.5 °C 4.2 °C 5.2 °C
Dew Point: 5.2 °C 2.5 °C 3.2 °C
Humidity: 90% 79% 87%
Wind Speed: 3.2km/h 0km/h 0.2km/h
Wind Gust: 4.8km/h - -
Wind- - SE
Pressure: 1024.0 hPa 1019.6 hPa -
Precipitation: 0.0 mm    
Historical Graphs
 
 
Tabular Data for March 4, 2021
Time Temperature Dew Point Pressure Wind Wind Speed Wind Gust Humidity Rainfall Rate (Hourly) solar
00:03 6.3 °C 3.6 °C 1024.0 hPa Calm     83% 0.0 mm 0 W/m2
00:08 6.3 °C 3.6 °C 1023.7 hPa Calm     83% 0.0 mm 0 W/m2
00:13 6.2 °C 3.5 °C 1023.7 hPa Calm     83% 0.0 mm 0 W/m2
00:18 6.1 °C 3.6 °C 1023.7 hPa Calm     84% 0.0 mm 0 W/m2
00:23 5.9 °C 3.4 °C 1023.7 hPa Calm     84% 0.0 mm 0 W/m2
00:28 5.8 °C 3.5 °C 1023.7 hPa Calm     85% 0.0 mm 0 W/m2
00:33 5.8 °C 3.5 °C 1023.7 hPa Calm     85% 0.0 mm 0 W/m2
00:38 5.7 °C 3.4 °C 1023.7 hPa Calm     85% 0.0 mm 0 W/m2
00:43 5.8 °C 3.5 °C 1023.4 hPa Calm     85% 0.0 mm 0 W/m2
00:48 5.7 °C 3.4 °C 1023.4 hPa Calm     85% 0.0 mm 0 W/m2
00:53 5.8 °C 3.5 °C 1023.4 hPa Calm     85% 0.0 mm 0 W/m2
00:58 5.8 °C 3.5 °C 1023.4 hPa Calm     85% 0.0 mm 0 W/m2
01:03 5.7 °C 3.4 °C 1023.4 hPa Calm     85% 0.0 mm 0 W/m2
01:08 5.7 °C 3.4 °C 1023.4 hPa Calm     85% 0.0 mm 0 W/m2
01:13 5.6 °C 3.3 °C 1023.4 hPa Calm     85% 0.0 mm 0 W/m2
01:18 5.6 °C 3.3 °C 1023.4 hPa Calm     85% 0.0 mm 0 W/m2
01:23 5.6 °C 3.3 °C 1023.4 hPa Calm     85% 0.0 mm 0 W/m2
01:28 5.5 °C 3.2 °C 1023.4 hPa Calm     85% 0.0 mm 0 W/m2
01:33 5.4 °C 3.1 °C 1023.4 hPa Calm   1.6 km/h 85% 0.0 mm 0 W/m2
01:38 5.4 °C 3.1 °C 1023.4 hPa Calm     85% 0.0 mm 0 W/m2
01:43 5.4 °C 3.1 °C 1023.4 hPa Calm   1.6 km/h 85% 0.0 mm 0 W/m2
01:48 5.4 °C 3.2 °C 1023.4 hPa Calm     86% 0.0 mm 0 W/m2
01:53 5.3 °C 3.1 °C 1023.4 hPa Calm     86% 0.0 mm 0 W/m2
01:58 5.3 °C 3.1 °C 1023.0 hPa Calm     86% 0.0 mm 0 W/m2
02:03 5.2 °C 3.1 °C 1023.0 hPa Calm   1.6 km/h 86% 0.0 mm 0 W/m2
02:08 5.2 °C 3.2 °C 1023.0 hPa Calm     87% 0.0 mm 0 W/m2
02:13 5.2 °C 3.2 °C 1023.0 hPa Calm     87% 0.0 mm 0 W/m2
02:18 5.2 °C 3.2 °C 1023.0 hPa Calm     87% 0.0 mm 0 W/m2
02:23 5.3 °C 3.3 °C 1023.0 hPa Calm   1.6 km/h 87% 0.0 mm 0 W/m2
02:28 5.3 °C 3.3 °C 1023.0 hPa Calm   1.6 km/h 87% 0.0 mm 0 W/m2
02:33 5.3 °C 3.3 °C 1022.7 hPa Calm   1.6 km/h 87% 0.0 mm 0 W/m2
02:38 5.3 °C 3.3 °C 1022.7 hPa Calm     87% 0.0 mm 0 W/m2
02:43 5.2 °C 3.2 °C 1022.7 hPa Calm   1.6 km/h 87% 0.0 mm 0 W/m2
02:48 5.2 °C 3.2 °C 1022.7 hPa Calm     87% 0.0 mm 0 W/m2
02:53 5.1 °C 3.1 °C 1022.7 hPa Calm     87% 0.0 mm 0 W/m2
02:58 5.1 °C 3.1 °C 1022.7 hPa Calm     87% 0.0 mm 0 W/m2
03:03 5.1 °C 3.1 °C 1022.4 hPa Calm     87% 0.0 mm 0 W/m2
03:08 5.1 °C 3.1 °C 1022.4 hPa Calm     87% 0.0 mm 0 W/m2
03:13 5.1 °C 3.1 °C 1022.4 hPa Calm     87% 0.0 mm 0 W/m2
03:18 5.1 °C 3.1 °C 1022.4 hPa Calm     87% 0.0 mm 0 W/m2
03:23 5.1 °C 3.1 °C 1022.4 hPa Calm   1.6 km/h 87% 0.0 mm 0 W/m2
03:28 5.1 °C 3.1 °C 1022.4 hPa Calm   1.6 km/h 87% 0.0 mm 0 W/m2
03:33 5.2 °C 3.2 °C 1022.0 hPa Calm   1.6 km/h 87% 0.0 mm 0 W/m2
03:38 5.2 °C 3.2 °C 1022.0 hPa Calm     87% 0.0 mm 0 W/m2
03:43 5.2 °C 3.1 °C 1022.0 hPa Calm     86% 0.0 mm 0 W/m2
03:48 5.1 °C 3 °C 1022.0 hPa Calm     86% 0.0 mm 0 W/m2
03:53 5.1 °C 3.1 °C 1021.7 hPa Calm     87% 0.0 mm 0 W/m2
03:58 5 °C 3 °C 1021.7 hPa Calm     87% 0.0 mm 0 W/m2
04:03 4.9 °C 2.9 °C 1021.7 hPa ESE 1.4 km/h 1.6 km/h 87% 0.0 mm 0 W/m2
04:08 4.8 °C 2.8 °C 1021.7 hPa Calm     87% 0.0 mm 0 W/m2
04:13 4.8 °C 3 °C 1021.7 hPa Calm   1.6 km/h 88% 0.0 mm 0 W/m2
04:18 4.7 °C 2.7 °C 1021.7 hPa Calm     87% 0.0 mm 0 W/m2
04:23 4.6 °C 2.8 °C 1021.7 hPa Calm     88% 0.0 mm 0 W/m2
04:28 4.6 °C 2.8 °C 1021.7 hPa Calm     88% 0.0 mm 0 W/m2
04:33 4.6 °C 2.8 °C 1021.7 hPa Calm     88% 0.0 mm 0 W/m2
04:38 4.5 °C 2.5 °C 1021.3 hPa Calm     87% 0.0 mm 0 W/m2
04:43 4.4 °C 2.6 °C 1021.3 hPa Calm     88% 0.0 mm 0 W/m2
04:53 4.4 °C 2.7 °C 1021.3 hPa Calm   1.6 km/h 89% 0.0 mm 0 W/m2
04:58 4.4 °C 2.7 °C 1021.3 hPa ESE 1.4 km/h 1.6 km/h 89% 0.0 mm 0 W/m2
05:03 4.4 °C 2.7 °C 1021.3 hPa Calm   1.6 km/h 89% 0.0 mm 0 W/m2
05:08 4.5 °C 2.7 °C 1021.3 hPa Calm     88% 0.0 mm 0 W/m2
05:13 4.4 °C 2.6 °C 1021.3 hPa Calm   1.6 km/h 88% 0.0 mm 0 W/m2
05:18 4.4 °C 2.6 °C 1021.3 hPa Calm     88% 0.0 mm 0 W/m2
05:23 4.4 °C 2.6 °C 1021.3 hPa Calm   1.6 km/h 88% 0.0 mm 0 W/m2
05:28 4.4 °C 2.6 °C 1021.3 hPa Calm   3.2 km/h 88% 0.0 mm 0 W/m2
05:33 4.4 °C 2.6 °C 1021.0 hPa Calm   1.6 km/h 88% 0.0 mm 0 W/m2
05:38 4.4 °C 2.6 °C 1021.0 hPa Calm     88% 0.0 mm 0 W/m2
05:43 4.4 °C 2.6 °C 1021.0 hPa Calm     88% 0.0 mm 0 W/m2
05:48 4.3 °C 2.5 °C 1021.0 hPa Calm     88% 0.0 mm 0 W/m2
05:53 4.3 °C 2.5 °C 1021.0 hPa Calm     88% 0.0 mm 0 W/m2
05:58 4.2 °C 2.5 °C 1021.0 hPa Calm     89% 0.0 mm 0 W/m2
06:03 4.2 °C 2.5 °C 1021.0 hPa Calm     89% 0.0 mm 0 W/m2
06:08 4.2 °C 2.5 °C 1020.7 hPa ESE 1.4 km/h 3.2 km/h 89% 0.0 mm 0 W/m2
06:13 4.2 °C 2.5 °C 1021.0 hPa Calm   1.6 km/h 89% 0.0 mm 0 W/m2
06:18 4.2 °C 2.5 °C 1020.7 hPa Calm   3.2 km/h 89% 0.0 mm 0 W/m2
06:23 4.2 °C 2.5 °C 1020.7 hPa Calm     89% 0.0 mm 0 W/m2
06:28 4.3 °C 2.6 °C 1020.7 hPa ESE 3.2 km/h 3.2 km/h 89% 0.0 mm 0 W/m2
06:33 4.3 °C 2.6 °C 1021.0 hPa Calm   1.6 km/h 89% 0.0 mm 0 W/m2
06:38 4.3 °C 2.6 °C 1020.7 hPa ESE 3.2 km/h 3.2 km/h 89% 0.0 mm 0 W/m2
06:43 4.3 °C 2.6 °C 1020.7 hPa Calm     89% 0.0 mm 0 W/m2
06:48 4.3 °C 2.6 °C 1020.7 hPa ESE 1.4 km/h 1.6 km/h 89% 0.0 mm 0 W/m2
06:53 4.4 °C 2.7 °C 1020.7 hPa ESE 1.4 km/h 3.2 km/h 89% 0.0 mm 0 W/m2
06:58 4.4 °C 2.7 °C 1020.7 hPa Calm   1.6 km/h 89% 0.0 mm 0 W/m2
07:03 4.4 °C 2.7 °C 1020.7 hPa ESE 1.4 km/h 3.2 km/h 89% 0.0 mm 0 W/m2
07:08 4.5 °C 2.8 °C 1020.7 hPa Calm   1.6 km/h 89% 0.0 mm 0 W/m2
07:13 4.4 °C 2.7 °C 1020.7 hPa Calm   3.2 km/h 89% 0.0 mm 0 W/m2
07:18 4.4 °C 2.7 °C 1020.7 hPa Calm     89% 0.0 mm 0 W/m2
07:23 4.4 °C 2.7 °C 1020.7 hPa Calm     89% 0.0 mm 5 W/m2
07:28 4.3 °C 2.6 °C 1020.7 hPa Calm     89% 0.0 mm 5 W/m2
07:33 4.3 °C 2.6 °C 1020.7 hPa Calm     89% 0.0 mm 7 W/m2
07:38 4.3 °C 2.6 °C 1020.7 hPa Calm     89% 0.0 mm 9 W/m2
07:43 4.2 °C 2.5 °C 1020.7 hPa Calm     89% 0.0 mm 12 W/m2
07:48 4.3 °C 2.8 °C 1020.7 hPa Calm   1.6 km/h 90% 0.0 mm 16 W/m2
07:53 4.4 °C 2.9 °C 1020.3 hPa ESE 1.4 km/h 3.2 km/h 90% 0.0 mm 21 W/m2
07:58 4.6 °C 3.1 °C 1020.3 hPa Calm     90% 0.0 mm 28 W/m2
08:04 4.6 °C 3.1 °C 1020.3 hPa Calm   1.6 km/h 90% 0.0 mm 46 W/m2
08:09 4.7 °C 3.2 °C 1020.7 hPa Calm   1.6 km/h 90% 0.0 mm 60 W/m2
08:14 4.7 °C 3.2 °C 1020.7 hPa Calm     90% 0.0 mm 56 W/m2
08:19 4.8 °C 3.3 °C 1020.7 hPa Calm     90% 0.0 mm 62 W/m2
08:24 4.9 °C 3.4 °C 1020.7 hPa WNW 1.4 km/h 3.2 km/h 90% 0.0 mm 65 W/m2
08:29 5.1 °C 3.4 °C 1020.7 hPa Calm   1.6 km/h 89% 0.0 mm 69 W/m2
08:34 5.2 °C 3.5 °C 1020.7 hPa Calm   1.6 km/h 89% 0.0 mm 58 W/m2
08:39 5.4 °C 3.6 °C 1020.7 hPa Calm   1.6 km/h 88% 0.0 mm 51 W/m2
08:44 5.5 °C 3.7 °C 1020.3 hPa Calm   1.6 km/h 88% 0.0 mm 49 W/m2
08:49 5.7 °C 3.7 °C 1020.3 hPa Calm   3.2 km/h 87% 0.0 mm 54 W/m2
08:54 5.8 °C 3.8 °C 1020.3 hPa Calm     87% 0.0 mm 70 W/m2
08:59 5.9 °C 3.7 °C 1020.3 hPa Calm   3.2 km/h 86% 0.0 mm 65 W/m2
09:04 6.2 °C 4 °C 1020.3 hPa ENE 1.4 km/h 3.2 km/h 86% 0.0 mm 90 W/m2
09:09 6.3 °C 4 °C 1020.3 hPa Calm   4.8 km/h 85% 0.0 mm 79 W/m2
09:14 6.5 °C 4.2 °C 1020.0 hPa Calm   3.2 km/h 85% 0.0 mm 97 W/m2
09:19 6.6 °C 4.3 °C 1020.0 hPa East 1.4 km/h 3.2 km/h 85% 0.0 mm 107 W/m2
09:24 6.7 °C 4.4 °C 1020.0 hPa Calm   1.6 km/h 85% 0.0 mm 77 W/m2
09:29 6.8 °C 4.3 °C 1020.0 hPa Calm   1.6 km/h 84% 0.0 mm 109 W/m2
09:34 6.9 °C 4.4 °C 1020.0 hPa Calm     84% 0.0 mm 179 W/m2
09:39 7.2 °C 4.7 °C 1020.0 hPa East 1.4 km/h 3.2 km/h 84% 0.0 mm 292 W/m2
09:44 7.6 °C 4.9 °C 1020.0 hPa Calm   1.6 km/h 83% 0.0 mm 320 W/m2
09:49 7.9 °C 5 °C 1020.0 hPa Calm     82% 0.0 mm 188 W/m2
09:54 8.2 °C 5 °C 1020.0 hPa Calm   3.2 km/h 80% 0.0 mm 130 W/m2
09:59 8.4 °C 5.2 °C 1019.6 hPa NW 1.4 km/h 4.8 km/h 80% 0.0 mm 121 W/m2
10:04 8.5 °C 5.1 °C 1019.6 hPa Calm   3.2 km/h 79% 0.0 mm 120 W/m2
Juneau County Weather
Compliments of Weather Underground - 4 mb